createdAt,value
2018-09-12T00:02:25.509Z,13.20
2018-09-12T00:04:55.605Z,13.20
2018-09-12T00:07:25.690Z,13.30
2018-09-12T00:09:55.776Z,13.20
2018-09-12T00:12:25.864Z,13.40
2018-09-12T00:14:55.956Z,13.40
2018-09-12T00:17:26.060Z,13.30
2018-09-12T00:19:56.200Z,13.20
2018-09-12T00:22:26.500Z,13.10
2018-09-12T00:24:56.632Z,12.90
2018-09-12T00:27:26.705Z,13.00
2018-09-12T00:29:56.775Z,13.00
2018-09-12T00:32:26.856Z,12.80
2018-09-12T00:34:56.936Z,12.90
2018-09-12T00:37:27.900Z,13.00
2018-09-12T00:39:57.996Z,12.80
2018-09-12T00:42:28.120Z,12.90
2018-09-12T00:44:58.192Z,13.00
2018-09-12T00:47:28.291Z,13.10
2018-09-12T00:49:58.409Z,13.20
2018-09-12T00:52:28.534Z,13.10
2018-09-12T00:54:58.627Z,13.00
2018-09-12T00:57:28.768Z,12.80
2018-09-12T00:59:58.895Z,12.70
2018-09-12T01:02:29.110Z,12.60
2018-09-12T01:04:59.221Z,12.60
2018-09-12T01:07:29.425Z,12.50
2018-09-12T01:09:59.531Z,12.50
2018-09-12T01:12:29.652Z,12.40
2018-09-12T01:14:59.818Z,12.40
2018-09-12T01:17:29.953Z,12.50
2018-09-12T01:20:00.148Z,12.40
2018-09-12T01:22:30.224Z,12.40
2018-09-12T01:25:00.285Z,12.50
2018-09-12T01:27:30.404Z,12.50
2018-09-12T01:30:00.563Z,12.50
2018-09-12T01:32:30.645Z,12.50
2018-09-12T01:35:01.023Z,12.40
2018-09-12T01:37:31.188Z,12.40
2018-09-12T01:40:01.294Z,12.40
2018-09-12T01:42:31.379Z,12.30
2018-09-12T01:45:01.449Z,12.40
2018-09-12T01:47:31.524Z,12.50
2018-09-12T01:50:01.653Z,12.40
2018-09-12T01:52:31.883Z,12.40
2018-09-12T01:55:02.024Z,12.30
2018-09-12T01:57:32.121Z,12.00
2018-09-12T02:00:02.216Z,12.00
2018-09-12T02:02:32.296Z,12.10
2018-09-12T02:05:02.409Z,12.00
2018-09-12T02:07:32.491Z,12.00
2018-09-12T02:10:02.620Z,12.00
2018-09-12T02:12:32.755Z,12.10
2018-09-12T02:15:02.990Z,12.10
2018-09-12T02:17:33.184Z,12.10
2018-09-12T02:20:03.497Z,12.10
2018-09-12T02:22:34.072Z,12.20
2018-09-12T02:25:04.229Z,12.10
2018-09-12T02:27:34.301Z,11.90
2018-09-12T02:30:04.525Z,12.00
2018-09-12T02:32:34.628Z,12.00
2018-09-12T02:35:04.836Z,11.90
2018-09-12T02:37:35.009Z,11.90
2018-09-12T02:40:05.936Z,11.80
2018-09-12T02:42:36.056Z,11.70
2018-09-12T02:45:06.716Z,11.80
2018-09-12T02:47:40.382Z,11.80
2018-09-12T02:50:13.567Z,11.70
2018-09-12T02:52:43.700Z,11.80
2018-09-12T02:55:14.156Z,11.70
2018-09-12T02:57:44.315Z,11.70
2018-09-12T03:00:14.430Z,11.60
2018-09-12T03:02:44.516Z,11.60
2018-09-12T03:05:16.704Z,11.60
2018-09-12T03:07:46.889Z,11.60
2018-09-12T03:10:16.948Z,11.60
2018-09-12T03:12:47.025Z,11.60
2018-09-12T03:15:17.128Z,11.60
2018-09-12T03:17:47.209Z,11.50
2018-09-12T03:20:17.291Z,11.70
2018-09-12T03:22:47.365Z,11.70
2018-09-12T03:25:17.452Z,11.70
2018-09-12T03:27:47.617Z,11.60
2018-09-12T03:30:17.687Z,11.70
2018-09-12T03:32:47.744Z,11.60
2018-09-12T03:35:17.824Z,11.50
2018-09-12T03:37:47.896Z,11.50
2018-09-12T03:40:17.981Z,11.50
2018-09-12T03:42:48.061Z,11.30
2018-09-12T03:45:18.232Z,11.20
2018-09-12T03:47:48.467Z,11.10
2018-09-12T03:50:18.540Z,11.10
2018-09-12T03:52:48.624Z,11.20
2018-09-12T03:55:18.730Z,11.30
2018-09-12T03:57:48.825Z,11.20
2018-09-12T04:00:18.906Z,11.20
2018-09-12T04:02:49.027Z,11.10
2018-09-12T04:05:19.080Z,11.10
2018-09-12T04:07:49.197Z,11.10
2018-09-12T04:10:19.272Z,11.20
2018-09-12T04:12:49.348Z,11.20
2018-09-12T04:15:19.445Z,11.30
2018-09-12T04:17:49.548Z,11.20
2018-09-12T04:20:19.617Z,11.30
2018-09-12T04:22:49.716Z,11.30
2018-09-12T04:25:19.801Z,11.20
2018-09-12T04:27:49.917Z,11.00
2018-09-12T04:30:20.014Z,11.10
2018-09-12T04:32:50.198Z,11.20
2018-09-12T04:35:20.317Z,11.30
2018-09-12T04:37:50.425Z,11.30
2018-09-12T04:40:20.491Z,11.20
2018-09-12T04:42:50.630Z,11.10
2018-09-12T04:45:20.685Z,11.10
2018-09-12T04:47:50.824Z,11.10
2018-09-12T04:50:20.904Z,11.10
2018-09-12T04:52:50.996Z,11.00
2018-09-12T04:55:21.137Z,11.00
2018-09-12T04:57:51.203Z,11.30
2018-09-12T05:00:21.292Z,11.70
2018-09-12T05:02:51.382Z,12.10
2018-09-12T05:05:21.465Z,12.50
2018-09-12T05:07:51.576Z,13.00
2018-09-12T05:10:21.707Z,13.40
2018-09-12T05:12:51.785Z,13.90
2018-09-12T05:15:21.865Z,14.70
2018-09-12T05:17:52.000Z,15.10
2018-09-12T05:20:22.278Z,15.50
2018-09-12T05:22:52.376Z,15.80
2018-09-12T05:25:22.476Z,16.40
2018-09-12T05:27:52.679Z,16.80
2018-09-12T05:30:22.822Z,17.50
2018-09-12T05:32:52.876Z,17.60
2018-09-12T05:35:23.016Z,17.80
2018-09-12T05:37:53.085Z,18.20
2018-09-12T05:40:23.237Z,17.70
2018-09-12T05:42:53.321Z,18.20
2018-09-12T05:45:23.420Z,18.80
2018-09-12T05:47:53.492Z,19.20
2018-09-12T05:50:23.568Z,19.40
2018-09-12T05:52:53.765Z,19.70
2018-09-12T05:55:23.835Z,19.70
2018-09-12T05:57:53.938Z,19.70
2018-09-12T06:00:24.052Z,19.70
2018-09-12T06:02:54.124Z,20.00
2018-09-12T06:05:24.253Z,19.80
2018-09-12T06:07:54.385Z,19.90
2018-09-12T06:10:24.508Z,20.20
2018-09-12T06:12:54.572Z,20.40
2018-09-12T06:15:24.758Z,20.60
2018-09-12T06:17:54.813Z,20.00
2018-09-12T06:20:24.912Z,20.50
2018-09-12T06:22:55.013Z,20.60
2018-09-12T06:25:25.165Z,20.80
2018-09-12T06:27:55.269Z,20.90
2018-09-12T06:30:25.332Z,20.30
2018-09-12T06:32:55.468Z,20.90
2018-09-12T06:35:25.528Z,21.10
2018-09-12T06:37:55.697Z,21.20
2018-09-12T06:40:25.745Z,21.20
2018-09-12T06:42:55.840Z,21.80
2018-09-12T06:45:25.940Z,21.60
2018-09-12T06:47:56.025Z,22.00
2018-09-12T06:50:26.095Z,21.70
2018-09-12T06:52:56.212Z,22.00
2018-09-12T06:55:26.552Z,22.10
2018-09-12T06:57:56.661Z,22.40
2018-09-12T07:00:26.769Z,22.40
2018-09-12T07:02:56.857Z,22.70
2018-09-12T07:05:26.952Z,22.90
2018-09-12T07:07:57.045Z,23.00
2018-09-12T07:10:27.180Z,22.90
2018-09-12T07:12:57.280Z,23.10
2018-09-12T07:15:27.500Z,23.10
2018-09-12T07:17:57.584Z,23.40
2018-09-12T07:20:27.652Z,23.70
2018-09-12T07:22:57.740Z,24.10
2018-09-12T07:25:28.090Z,24.30
2018-09-12T07:27:58.208Z,24.50
2018-09-12T07:30:28.569Z,24.00
2018-09-12T07:32:58.795Z,24.10
2018-09-12T07:35:28.957Z,24.50
2018-09-12T07:37:59.099Z,24.20
2018-09-12T07:40:29.192Z,24.30
2018-09-12T07:42:59.436Z,25.00
2018-09-12T07:45:29.618Z,25.10
2018-09-12T07:47:59.768Z,24.80
2018-09-12T07:50:29.912Z,24.70
2018-09-12T07:53:00.008Z,24.60
2018-09-12T07:55:30.080Z,25.10
2018-09-12T07:58:00.188Z,24.80
2018-09-12T08:00:30.352Z,25.00
2018-09-12T08:03:00.376Z,25.10
2018-09-12T08:05:30.530Z,25.40
2018-09-12T08:08:00.656Z,25.50
2018-09-12T08:10:30.712Z,25.70
2018-09-12T08:13:00.833Z,25.90
2018-09-12T08:15:30.951Z,25.70
2018-09-12T08:18:01.046Z,25.50
2018-09-12T08:20:31.161Z,25.80
2018-09-12T08:23:01.230Z,25.70
2018-09-12T08:25:31.324Z,25.90
2018-09-12T08:28:01.409Z,26.30
2018-09-12T08:30:31.580Z,26.10
2018-09-12T08:33:01.769Z,26.50
2018-09-12T08:35:31.832Z,26.60
2018-09-12T08:38:01.920Z,26.60
2018-09-12T08:40:32.031Z,26.70
2018-09-12T08:43:02.152Z,26.60
2018-09-12T08:45:32.236Z,26.70
2018-09-12T08:48:02.401Z,27.00
2018-09-12T08:50:32.477Z,26.90
2018-09-12T08:53:02.669Z,26.80
2018-09-12T08:55:32.688Z,26.90
2018-09-12T08:58:02.785Z,26.60
2018-09-12T09:00:35.293Z,26.40
2018-09-12T09:03:06.681Z,26.70
2018-09-12T09:05:36.808Z,26.60
2018-09-12T09:08:06.945Z,26.90
2018-09-12T09:10:37.143Z,27.00
2018-09-12T09:13:07.288Z,27.00
2018-09-12T09:15:37.407Z,27.00
2018-09-12T09:18:07.698Z,27.20
2018-09-12T09:20:37.792Z,27.10
2018-09-12T09:23:10.877Z,27.10
2018-09-12T09:25:40.957Z,27.10
2018-09-12T09:28:11.133Z,26.90
2018-09-12T09:30:41.268Z,26.80
2018-09-12T09:33:17.657Z,26.60
2018-09-12T09:35:47.850Z,26.30
2018-09-12T09:38:17.847Z,26.50
2018-09-12T09:40:48.064Z,26.30
2018-09-12T09:43:18.201Z,26.30
2018-09-12T09:45:48.320Z,26.20
2018-09-12T09:48:18.445Z,26.30
2018-09-12T09:50:48.522Z,26.10
2018-09-12T09:53:18.580Z,25.90
2018-09-12T09:55:48.724Z,25.80
2018-09-12T09:58:18.837Z,25.70
2018-09-12T10:00:54.041Z,25.80
2018-09-12T10:03:29.329Z,25.60
2018-09-12T10:06:04.603Z,25.60
2018-09-12T10:09:40.531Z,25.60
2018-09-12T10:12:10.667Z,25.60
2018-09-12T10:14:40.775Z,25.40
2018-09-12T10:17:10.861Z,25.40
2018-09-12T10:19:40.920Z,25.30
2018-09-12T10:22:11.023Z,25.30
2018-09-12T10:24:41.109Z,25.30
2018-09-12T10:27:11.171Z,25.40
2018-09-12T10:29:41.248Z,25.30
2018-09-12T10:32:11.320Z,25.40
2018-09-12T10:34:43.381Z,25.40
2018-09-12T10:37:15.857Z,25.40
2018-09-12T10:39:45.948Z,25.40
2018-09-12T10:42:16.023Z,25.50
2018-09-12T10:44:46.144Z,25.60
2018-09-12T10:47:16.225Z,25.50
2018-09-12T10:49:46.433Z,25.50
2018-09-12T10:52:16.500Z,25.40
2018-09-12T10:54:46.584Z,25.50
2018-09-12T10:57:16.656Z,25.50
2018-09-12T10:59:46.744Z,25.60
2018-09-12T11:02:16.855Z,25.50
2018-09-12T11:04:46.931Z,25.60
2018-09-12T11:07:17.092Z,25.60
2018-09-12T11:09:47.333Z,25.70
2018-09-12T11:12:17.340Z,25.70
2018-09-12T11:14:47.433Z,25.80
2018-09-12T11:17:17.500Z,25.80
2018-09-12T11:19:47.604Z,25.70
2018-09-12T11:22:17.756Z,25.70
2018-09-12T11:24:47.889Z,25.70
2018-09-12T11:27:17.955Z,25.80
2018-09-12T11:29:48.037Z,25.80
2018-09-12T11:32:18.104Z,25.80
2018-09-12T11:34:48.171Z,25.80
2018-09-12T11:37:18.292Z,25.70
2018-09-12T11:39:48.360Z,25.70
2018-09-12T11:42:18.473Z,25.80
2018-09-12T11:44:48.557Z,25.80
2018-09-12T11:47:18.701Z,25.90
2018-09-12T11:52:49.616Z,26.00
2018-09-12T11:55:19.805Z,25.80
2018-09-12T11:57:49.880Z,25.90
2018-09-12T12:00:20.088Z,25.80
2018-09-12T12:02:50.179Z,25.80
2018-09-12T12:05:20.319Z,25.80
2018-09-12T12:07:50.387Z,25.90
2018-09-12T12:10:20.522Z,26.00
2018-09-12T12:12:50.596Z,26.00
2018-09-12T12:15:20.710Z,26.10
2018-09-12T12:17:51.356Z,26.20
2018-09-12T12:20:21.423Z,26.10
2018-09-12T12:22:51.560Z,26.10
2018-09-12T12:25:21.683Z,26.00
2018-09-12T12:27:51.752Z,26.00
2018-09-12T12:30:21.824Z,26.00
2018-09-12T12:32:51.904Z,26.10
2018-09-12T12:35:22.553Z,26.10
2018-09-12T12:37:53.040Z,26.00
2018-09-12T12:40:23.450Z,26.00
2018-09-12T12:42:53.527Z,26.10
2018-09-12T12:45:23.733Z,26.10
2018-09-12T12:47:53.832Z,26.10
2018-09-12T12:50:23.901Z,26.00
2018-09-12T12:52:53.978Z,26.10
2018-09-12T12:55:24.044Z,25.90
2018-09-12T12:57:54.180Z,25.90
2018-09-12T13:00:24.257Z,25.80
2018-09-12T13:02:54.336Z,25.90
2018-09-12T13:05:24.408Z,25.80
2018-09-12T13:07:54.521Z,25.70
2018-09-12T13:10:24.601Z,25.80
2018-09-12T13:12:54.684Z,25.80
2018-09-12T13:15:24.800Z,25.80
2018-09-12T13:17:55.001Z,25.80
2018-09-12T13:20:25.093Z,25.70
2018-09-12T13:22:55.173Z,25.70
2018-09-12T13:25:25.317Z,25.70
2018-09-12T13:27:55.448Z,25.70
2018-09-12T13:30:25.488Z,25.80
2018-09-12T13:32:55.609Z,25.80
2018-09-12T13:35:25.747Z,25.70
2018-09-12T13:37:55.900Z,25.80
2018-09-12T13:40:25.984Z,25.80
2018-09-12T13:42:56.128Z,25.90
2018-09-12T13:45:26.215Z,25.90
2018-09-12T13:47:56.288Z,26.00
2018-09-12T13:50:26.366Z,26.00
2018-09-12T13:52:56.441Z,26.00
2018-09-12T13:55:26.552Z,26.10
2018-09-12T13:57:56.616Z,26.00
2018-09-12T14:00:30.252Z,26.10
2018-09-12T14:03:02.380Z,26.20
2018-09-12T14:05:33.316Z,26.20
2018-09-12T14:08:03.391Z,26.20
2018-09-12T14:10:33.476Z,26.20
2018-09-12T14:13:03.540Z,26.30
2018-09-12T14:15:33.620Z,26.20
2018-09-12T14:18:03.719Z,26.20
2018-09-12T14:20:33.796Z,26.20
2018-09-12T14:23:03.882Z,26.10
2018-09-12T14:25:34.000Z,26.00
2018-09-12T14:28:04.188Z,26.00
2018-09-12T14:30:34.280Z,26.10
2018-09-12T14:33:04.371Z,26.10
2018-09-12T14:35:34.485Z,26.00
2018-09-12T14:38:04.589Z,26.00
2018-09-12T14:40:34.673Z,26.00
2018-09-12T14:43:04.750Z,25.90
2018-09-12T14:45:34.816Z,25.80
2018-09-12T14:48:04.892Z,25.80
2018-09-12T14:50:34.992Z,26.00
2018-09-12T14:53:05.108Z,25.90
2018-09-12T14:55:35.225Z,25.90
2018-09-12T14:58:05.344Z,25.80
2018-09-12T15:00:35.468Z,25.80
2018-09-12T15:03:05.559Z,25.80
2018-09-12T15:05:35.644Z,25.80
2018-09-12T15:08:05.861Z,25.80
2018-09-12T15:10:35.996Z,25.70
2018-09-12T15:13:06.328Z,25.70
2018-09-12T15:15:36.392Z,25.60
2018-09-12T15:18:06.488Z,25.60
2018-09-12T15:20:36.598Z,25.50
2018-09-12T15:23:07.024Z,25.40
2018-09-12T15:25:37.132Z,25.30
2018-09-12T15:28:07.301Z,25.20
2018-09-12T15:30:37.364Z,25.20
2018-09-12T15:33:07.567Z,25.30
2018-09-12T15:35:37.666Z,25.30
2018-09-12T15:38:07.732Z,25.20
2018-09-12T15:40:37.836Z,25.10
2018-09-12T15:43:07.982Z,25.00
2018-09-12T15:45:38.060Z,25.00
2018-09-12T15:48:08.149Z,25.00
2018-09-12T15:50:38.228Z,24.90
2018-09-12T15:53:08.380Z,24.90
2018-09-12T15:55:38.476Z,24.70
2018-09-12T15:58:08.612Z,24.60
2018-09-12T16:00:38.672Z,24.50
2018-09-12T16:03:08.897Z,24.40
2018-09-12T16:05:38.961Z,24.40
2018-09-12T16:08:09.165Z,24.20
2018-09-12T16:10:39.276Z,24.10
2018-09-12T16:13:09.410Z,24.00
2018-09-12T16:15:39.505Z,23.90
2018-09-12T16:18:09.612Z,23.80
2018-09-12T16:20:39.683Z,23.60
2018-09-12T16:23:09.819Z,23.50
2018-09-12T16:25:39.848Z,23.30
2018-09-12T16:28:09.946Z,23.20
2018-09-12T16:30:40.025Z,23.10
2018-09-12T16:33:10.117Z,22.90
2018-09-12T16:35:40.188Z,22.80
2018-09-12T16:38:10.316Z,22.60
2018-09-12T16:40:40.384Z,22.50
2018-09-12T16:43:10.494Z,22.30
2018-09-12T16:45:40.580Z,22.20
2018-09-12T16:48:10.672Z,22.00
2018-09-12T16:50:40.834Z,21.90
2018-09-12T16:53:10.892Z,21.80
2018-09-12T16:55:40.999Z,21.80
2018-09-12T16:58:11.088Z,21.60
2018-09-12T17:00:41.270Z,21.40
2018-09-12T17:03:11.359Z,21.30
2018-09-12T17:05:42.176Z,21.10
2018-09-12T17:08:12.272Z,21.10
2018-09-12T17:10:42.335Z,20.90
2018-09-12T17:13:12.408Z,20.70
2018-09-12T17:15:42.489Z,20.60
2018-09-12T17:18:12.552Z,20.70
2018-09-12T17:20:42.632Z,20.60
2018-09-12T17:23:12.736Z,20.50
2018-09-12T17:25:42.856Z,20.30
2018-09-12T17:28:12.952Z,20.30
2018-09-12T17:30:43.040Z,20.20
2018-09-12T17:33:13.196Z,20.00
2018-09-12T17:35:43.348Z,19.90
2018-09-12T17:38:13.459Z,19.70
2018-09-12T17:40:43.564Z,19.50
2018-09-12T17:43:13.748Z,19.30
2018-09-12T17:45:43.893Z,19.20
2018-09-12T17:48:14.008Z,19.10
2018-09-12T17:50:44.124Z,19.00
2018-09-12T17:53:14.239Z,18.90
2018-09-12T17:55:44.374Z,18.80
2018-09-12T17:58:14.461Z,18.70
2018-09-12T18:00:44.597Z,18.60
2018-09-12T18:03:14.700Z,18.50
2018-09-12T18:05:44.809Z,18.50
2018-09-12T18:08:14.874Z,18.40
2018-09-12T18:10:45.160Z,18.30
2018-09-12T18:13:15.803Z,18.30
2018-09-12T18:15:45.896Z,18.50
2018-09-12T18:18:15.955Z,18.40
2018-09-12T18:20:47.032Z,18.30
2018-09-12T18:23:17.128Z,18.10
2018-09-12T18:25:47.239Z,18.10
2018-09-12T18:28:17.445Z,18.10
2018-09-12T18:30:47.603Z,17.90
2018-09-12T18:33:17.672Z,17.80
2018-09-12T18:35:47.816Z,17.80
2018-09-12T18:38:17.960Z,17.70
2018-09-12T18:40:48.097Z,17.60
2018-09-12T18:43:18.312Z,17.60
2018-09-12T18:45:48.396Z,17.50
2018-09-12T18:48:18.489Z,17.50
2018-09-12T18:50:48.580Z,17.50
2018-09-12T18:53:18.696Z,17.50
2018-09-12T18:55:48.783Z,17.50
2018-09-12T18:58:18.896Z,17.50
2018-09-12T19:00:48.955Z,17.50
2018-09-12T19:03:19.072Z,17.50
2018-09-12T19:05:49.187Z,17.50
2018-09-12T19:08:19.825Z,17.30
2018-09-12T19:10:50.104Z,17.30
2018-09-12T19:13:20.328Z,17.20
2018-09-12T19:15:50.425Z,17.20
2018-09-12T19:18:20.585Z,17.10
2018-09-12T19:20:50.636Z,17.20
2018-09-12T19:23:20.824Z,17.20
2018-09-12T19:25:50.977Z,17.20
2018-09-12T19:28:21.120Z,17.20
2018-09-12T19:30:51.204Z,17.20
2018-09-12T19:33:21.289Z,17.10
2018-09-12T19:35:51.427Z,17.10
2018-09-12T19:38:21.476Z,17.00
2018-09-12T19:40:51.557Z,17.00
2018-09-12T19:43:21.636Z,16.90
2018-09-12T19:45:51.708Z,16.90
2018-09-12T19:48:21.768Z,16.80
2018-09-12T19:50:51.992Z,16.80
2018-09-12T19:53:22.073Z,16.80
2018-09-12T19:55:52.232Z,16.80
2018-09-12T19:58:22.541Z,16.80
2018-09-12T20:00:52.636Z,16.70
2018-09-12T20:03:22.758Z,16.70
2018-09-12T20:05:52.868Z,16.70
2018-09-12T20:08:23.261Z,16.60
2018-09-12T20:10:53.446Z,16.40
2018-09-12T20:13:23.528Z,16.30
2018-09-12T20:15:53.825Z,16.20
2018-09-12T20:18:23.900Z,16.20
2018-09-12T20:20:54.014Z,16.20
2018-09-12T20:23:24.156Z,16.20
2018-09-12T20:25:54.260Z,16.20
2018-09-12T20:28:24.345Z,16.20
2018-09-12T20:30:54.423Z,16.10
2018-09-12T20:33:24.772Z,16.10
2018-09-12T20:35:55.132Z,16.00
2018-09-12T20:38:25.595Z,16.00
2018-09-12T20:40:55.703Z,16.00
2018-09-12T20:43:25.852Z,16.00
2018-09-12T20:45:55.964Z,15.90
2018-09-12T20:48:26.048Z,15.90
2018-09-12T20:50:56.145Z,15.90
2018-09-12T20:53:26.436Z,15.80
2018-09-12T20:55:56.551Z,15.80
2018-09-12T20:58:26.630Z,15.70
2018-09-12T21:00:56.707Z,15.60
2018-09-12T21:03:26.824Z,15.50
2018-09-12T21:05:56.958Z,15.50
2018-09-12T21:08:27.040Z,15.60
2018-09-12T21:10:57.235Z,15.50
2018-09-12T21:13:27.215Z,15.50
2018-09-12T21:15:57.291Z,15.40
2018-09-12T21:18:27.365Z,15.40
2018-09-12T21:20:57.469Z,15.40
2018-09-12T21:23:27.647Z,15.30
2018-09-12T21:25:57.704Z,15.30
2018-09-12T21:28:27.811Z,15.30
2018-09-12T21:30:57.884Z,15.30
2018-09-12T21:33:28.032Z,15.20
2018-09-12T21:35:58.183Z,15.20
2018-09-12T21:38:28.489Z,15.20
2018-09-12T21:40:58.639Z,15.20
2018-09-12T21:43:28.734Z,15.20
2018-09-12T21:45:58.832Z,15.10
2018-09-12T21:48:28.940Z,15.00
2018-09-12T21:50:59.072Z,15.10
2018-09-12T21:53:29.161Z,15.00
2018-09-12T21:55:59.273Z,15.10
2018-09-12T21:58:29.355Z,15.00
2018-09-12T22:00:59.880Z,15.00
2018-09-12T22:03:30.440Z,14.90
2018-09-12T22:06:00.530Z,15.00
2018-09-12T22:08:30.621Z,15.00
2018-09-12T22:11:00.683Z,15.00
2018-09-12T22:13:30.777Z,15.00
2018-09-12T22:16:00.869Z,14.90
2018-09-12T22:18:30.940Z,14.90
2018-09-12T22:21:01.012Z,14.90
2018-09-12T22:23:31.080Z,14.80
2018-09-12T22:26:01.176Z,14.70
2018-09-12T22:28:31.351Z,14.70
2018-09-12T22:31:01.533Z,14.80
2018-09-12T22:33:31.623Z,14.70
2018-09-12T22:36:01.742Z,14.60
2018-09-12T22:38:31.828Z,14.60
2018-09-12T22:41:01.938Z,14.50
2018-09-12T22:43:32.052Z,14.50
2018-09-12T22:46:02.212Z,14.60
2018-09-12T22:48:32.344Z,14.60
2018-09-12T22:51:02.552Z,14.50
2018-09-12T22:53:32.611Z,14.50
2018-09-12T22:56:02.751Z,14.60
2018-09-12T22:58:32.889Z,14.60
2018-09-12T23:01:02.980Z,14.60
2018-09-12T23:03:33.088Z,14.60
2018-09-12T23:06:03.285Z,14.70
2018-09-12T23:08:33.427Z,14.50
2018-09-12T23:11:03.559Z,14.50
2018-09-12T23:13:33.651Z,14.40
2018-09-12T23:16:03.775Z,14.30
2018-09-12T23:18:33.864Z,14.40
2018-09-12T23:21:03.989Z,14.50
2018-09-12T23:23:34.064Z,14.50
2018-09-12T23:26:04.197Z,14.40
2018-09-12T23:28:34.296Z,14.40
2018-09-12T23:31:04.384Z,14.40
2018-09-12T23:33:34.525Z,14.40
2018-09-12T23:36:04.620Z,14.30
2018-09-12T23:38:34.703Z,14.20
2018-09-12T23:41:04.861Z,14.10
2018-09-12T23:43:34.934Z,14.10
2018-09-12T23:46:05.176Z,14.10
2018-09-12T23:48:35.257Z,14.00
2018-09-12T23:51:05.804Z,14.00
2018-09-12T23:53:35.863Z,14.00
2018-09-12T23:56:06.100Z,14.00
2018-09-12T23:58:36.191Z,14.00
